createdAt,value
2017-05-28T00:00:52.751Z,0
2017-05-28T00:02:15.212Z,0
2017-05-28T00:03:37.372Z,0
2017-05-28T00:04:59.533Z,0
2017-05-28T00:06:21.696Z,0
2017-05-28T00:07:43.972Z,0
2017-05-28T00:09:06.355Z,0
2017-05-28T00:10:27.872Z,0
2017-05-28T00:11:49.696Z,0
2017-05-28T00:13:11.869Z,0
2017-05-28T00:14:34.466Z,0
2017-05-28T00:15:56.604Z,0
2017-05-28T00:17:18.774Z,0
2017-05-28T00:18:41.224Z,0
2017-05-28T00:20:03.404Z,0
2017-05-28T00:21:25.555Z,0
2017-05-28T00:22:47.854Z,0
2017-05-28T00:24:10.025Z,0
2017-05-28T00:25:32.684Z,0
2017-05-28T00:26:54.216Z,0
2017-05-28T00:28:16.464Z,0
2017-05-28T00:29:38.374Z,0
2017-05-28T00:31:01.212Z,0
2017-05-28T00:32:23.065Z,0
2017-05-28T00:33:45.544Z,0
2017-05-28T00:35:07.751Z,0
2017-05-28T00:36:29.586Z,0
2017-05-28T00:37:51.756Z,0
2017-05-28T00:39:13.912Z,0
2017-05-28T00:40:35.440Z,0
2017-05-28T00:41:57.947Z,0
2017-05-28T00:43:20.097Z,0
2017-05-28T00:44:41.937Z,0
2017-05-28T00:46:03.765Z,0
2017-05-28T00:47:26.625Z,0
2017-05-28T00:48:48.560Z,0
2017-05-28T00:50:10.388Z,0
2017-05-28T00:51:31.903Z,0
2017-05-28T00:52:54.357Z,0
2017-05-28T00:54:16.535Z,0
2017-05-28T00:55:38.844Z,0
2017-05-28T00:57:00.348Z,0
2017-05-28T00:58:22.752Z,0
2017-05-28T00:59:45.209Z,0
2017-05-28T01:01:07.365Z,0
2017-05-28T01:02:28.968Z,0
2017-05-28T01:03:51.506Z,0
2017-05-28T01:05:12.767Z,0
2017-05-28T01:06:34.898Z,0
2017-05-28T01:07:56.396Z,0
2017-05-28T01:09:18.906Z,0
2017-05-28T01:10:40.809Z,0
2017-05-28T01:12:02.984Z,0
2017-05-28T01:13:24.804Z,0
2017-05-28T01:14:47.667Z,0
2017-05-28T01:16:09.484Z,0
2017-05-28T01:17:31.312Z,0
2017-05-28T01:18:53.457Z,0
2017-05-28T01:20:15.877Z,0
2017-05-28T01:21:38.349Z,0
2017-05-28T01:23:00.206Z,0
2017-05-28T01:24:22.357Z,0
2017-05-28T01:25:45.167Z,0
2017-05-28T01:27:07.635Z,0
2017-05-28T01:28:29.790Z,0
2017-05-28T01:29:51.625Z,0
2017-05-28T01:31:14.057Z,0
2017-05-28T01:32:36.507Z,0
2017-05-28T01:33:58.346Z,0
2017-05-28T01:35:19.641Z,0
2017-05-28T01:36:41.851Z,0
2017-05-28T01:38:03.362Z,0
2017-05-28T01:39:24.875Z,0
2017-05-28T01:40:47.375Z,0
2017-05-28T01:42:09.559Z,0
2017-05-28T01:43:31.765Z,0
2017-05-28T01:44:53.284Z,0
2017-05-28T01:46:15.129Z,0
2017-05-28T01:47:36.314Z,0
2017-05-28T01:48:58.825Z,0
2017-05-28T01:50:20.343Z,0
2017-05-28T01:51:42.201Z,0
2017-05-28T01:53:04.415Z,0
2017-05-28T01:54:26.584Z,0
2017-05-28T01:55:49.079Z,0
2017-05-28T01:57:11.395Z,0
2017-05-28T01:58:33.832Z,0
2017-05-28T01:59:55.663Z,0
2017-05-28T02:01:17.512Z,0
2017-05-28T02:02:39.687Z,0
2017-05-28T02:04:01.683Z,0
2017-05-28T02:05:23.660Z,0
2017-05-28T02:06:45.175Z,0
2017-05-28T02:08:06.744Z,0
2017-05-28T02:09:28.868Z,0
2017-05-28T02:10:50.714Z,0
2017-05-28T02:12:13.315Z,0
2017-05-28T02:13:35.161Z,4
2017-05-28T02:14:58.117Z,4
2017-05-28T02:16:20.281Z,4
2017-05-28T02:17:42.124Z,0
2017-05-28T02:19:04.269Z,4
2017-05-28T02:20:26.405Z,4
2017-05-28T02:21:48.638Z,0
2017-05-28T02:23:10.789Z,4
2017-05-28T02:24:33.169Z,4
2017-05-28T02:25:55.726Z,8
2017-05-28T02:27:18.183Z,8
2017-05-28T02:28:39.395Z,8
2017-05-28T02:30:00.955Z,8
2017-05-28T02:31:23.088Z,8
2017-05-28T02:32:45.355Z,12
2017-05-28T02:34:07.261Z,16
2017-05-28T02:35:29.435Z,16
2017-05-28T02:36:51.615Z,20
2017-05-28T02:38:14.075Z,24
2017-05-28T02:39:36.574Z,28
2017-05-28T02:40:58.396Z,28
2017-05-28T02:42:20.254Z,36
2017-05-28T02:43:41.785Z,40
2017-05-28T02:45:03.983Z,48
2017-05-28T02:46:26.454Z,56
2017-05-28T02:47:48.271Z,64
2017-05-28T02:49:10.421Z,76
2017-05-28T02:50:32.568Z,88
2017-05-28T02:51:54.747Z,100
2017-05-28T02:53:16.885Z,116
2017-05-28T02:54:38.392Z,140
2017-05-28T02:55:59.586Z,160
2017-05-28T02:57:21.447Z,184
2017-05-28T02:58:44.100Z,208
2017-05-28T03:00:05.935Z,236
2017-05-28T03:01:28.083Z,268
2017-05-28T03:02:49.611Z,300
2017-05-28T03:04:12.123Z,332
2017-05-28T03:05:34.326Z,364
2017-05-28T03:06:55.573Z,392
2017-05-28T03:08:17.914Z,428
2017-05-28T03:09:39.838Z,464
2017-05-28T03:11:01.355Z,504
2017-05-28T03:12:23.824Z,552
2017-05-28T03:13:45.121Z,604
2017-05-28T03:15:07.404Z,664
2017-05-28T03:16:29.610Z,728
2017-05-28T03:17:51.453Z,796
2017-05-28T03:19:13.723Z,868
2017-05-28T03:20:36.354Z,940
2017-05-28T03:21:58.510Z,1012
2017-05-28T03:23:20.333Z,1092
2017-05-28T03:24:42.514Z,1172
2017-05-28T03:26:04.268Z,1252
2017-05-28T03:27:26.748Z,1324
2017-05-28T03:28:48.993Z,1392
2017-05-28T03:30:10.513Z,1452
2017-05-28T03:31:32.994Z,1512
2017-05-28T03:32:54.814Z,1556
2017-05-28T03:34:16.641Z,1592
2017-05-28T03:35:38.493Z,1632
2017-05-28T03:37:00.631Z,1684
2017-05-28T03:38:22.963Z,1732
2017-05-28T03:39:45.109Z,1792
2017-05-28T03:41:06.703Z,1876
2017-05-28T03:42:28.594Z,1956
2017-05-28T03:43:50.864Z,2032
2017-05-28T03:45:12.702Z,2120
2017-05-28T03:46:35.262Z,2184
2017-05-28T03:47:57.695Z,2228
2017-05-28T03:49:20.005Z,2308
2017-05-28T03:50:41.970Z,2412
2017-05-28T03:52:03.814Z,2532
2017-05-28T03:53:26.052Z,2680
2017-05-28T03:54:47.936Z,2864
2017-05-28T03:56:10.163Z,3068
2017-05-28T03:57:32.411Z,3268
2017-05-28T03:58:54.813Z,3456
2017-05-28T04:00:16.325Z,3648
2017-05-28T04:01:38.859Z,3860
2017-05-28T04:03:00.047Z,4092
2017-05-28T04:04:22.879Z,4348
2017-05-28T04:05:45.343Z,4624
2017-05-28T04:07:07.225Z,4920
2017-05-28T04:08:28.743Z,5236
2017-05-28T04:09:50.641Z,5612
2017-05-28T04:11:12.606Z,6056
2017-05-28T04:12:34.762Z,6496
2017-05-28T04:13:56.613Z,6912
2017-05-28T04:15:18.793Z,7312
2017-05-28T04:16:39.986Z,7576
2017-05-28T04:18:02.181Z,7716
2017-05-28T04:19:24.423Z,7812
2017-05-28T04:20:46.655Z,7888
2017-05-28T04:22:08.488Z,7936
2017-05-28T04:23:30.002Z,7992
2017-05-28T04:24:51.851Z,8080
2017-05-28T04:26:14.044Z,8216
2017-05-28T04:27:36.497Z,8444
2017-05-28T04:28:58.783Z,8812
2017-05-28T04:30:21.326Z,9184
2017-05-28T04:31:44.153Z,9648
2017-05-28T04:33:06.353Z,10132
2017-05-28T04:34:28.583Z,10492
2017-05-28T04:35:50.735Z,10772
2017-05-28T04:37:12.814Z,10996
2017-05-28T04:38:35.291Z,11348
2017-05-28T04:39:57.211Z,11852
2017-05-28T04:41:19.055Z,12472
2017-05-28T04:42:41.643Z,13196
2017-05-28T04:44:03.854Z,14184
2017-05-28T04:45:26.014Z,15008
2017-05-28T04:46:47.833Z,15096
2017-05-28T04:48:10.255Z,14384
2017-05-28T04:49:32.463Z,13616
2017-05-28T04:50:54.352Z,13040
2017-05-28T04:52:16.503Z,12716
2017-05-28T04:53:38.946Z,11732
2017-05-28T04:55:00.463Z,10344
2017-05-28T04:56:22.953Z,9452
2017-05-28T04:57:45.233Z,15040
2017-05-28T04:59:07.703Z,16416
2017-05-28T05:00:29.705Z,8940
2017-05-28T05:01:51.854Z,6776
2017-05-28T05:03:13.774Z,6704
2017-05-28T05:04:35.863Z,6928
2017-05-28T05:05:58.520Z,7360
2017-05-28T05:07:20.434Z,8052
2017-05-28T05:08:41.625Z,9188
2017-05-28T05:10:04.691Z,9452
2017-05-28T05:11:26.554Z,9672
2017-05-28T05:12:49.166Z,10284
2017-05-28T05:14:11.013Z,10840
2017-05-28T05:15:32.854Z,11204
2017-05-28T05:16:54.683Z,11616
2017-05-28T05:18:16.902Z,12736
2017-05-28T05:19:38.742Z,15680
2017-05-28T05:21:00.952Z,18976
2017-05-28T05:22:23.123Z,21536
2017-05-28T05:23:45.274Z,24160
2017-05-28T05:25:07.488Z,25504
2017-05-28T05:26:29.674Z,22304
2017-05-28T05:27:51.227Z,20064
2017-05-28T05:29:13.395Z,16096
2017-05-28T05:30:35.563Z,14628
2017-05-28T05:31:57.822Z,13960
2017-05-28T05:33:19.673Z,13064
2017-05-28T05:34:41.532Z,12900
2017-05-28T05:36:03.374Z,10796
2017-05-28T05:37:25.559Z,9016
2017-05-28T05:38:47.489Z,6424
2017-05-28T05:40:09.963Z,5644
2017-05-28T05:41:31.817Z,6108
2017-05-28T05:42:54.335Z,7368
2017-05-28T05:44:16.223Z,8316
2017-05-28T05:45:38.083Z,8308
2017-05-28T05:47:00.255Z,7116
2017-05-28T05:48:23.182Z,6028
2017-05-28T05:49:45.122Z,5876
2017-05-28T05:51:07.625Z,5144
2017-05-28T05:52:30.093Z,5296
2017-05-28T05:53:52.517Z,5576
2017-05-28T05:55:14.373Z,5660
2017-05-28T05:56:36.537Z,5816
2017-05-28T05:57:58.515Z,6096
2017-05-28T05:59:21.350Z,6564
2017-05-28T06:00:43.917Z,6816
2017-05-28T06:02:06.384Z,6560
2017-05-28T06:03:28.658Z,6076
2017-05-28T06:04:51.474Z,5920
2017-05-28T06:06:13.003Z,6084
2017-05-28T06:07:34.957Z,6244
2017-05-28T06:08:57.303Z,6548
2017-05-28T06:10:19.641Z,7064
2017-05-28T06:11:41.800Z,6668
2017-05-28T06:13:04.273Z,6000
2017-05-28T06:14:26.435Z,5160
2017-05-28T06:15:49.189Z,4432
2017-05-28T06:17:10.083Z,3540
2017-05-28T06:18:31.600Z,2836
2017-05-28T06:19:53.768Z,2444
2017-05-28T06:21:16.631Z,2308
2017-05-28T06:22:39.195Z,2280
2017-05-28T06:24:01.395Z,2452
2017-05-28T06:25:23.543Z,2696
2017-05-28T06:26:45.679Z,2784
2017-05-28T06:28:07.216Z,2772
2017-05-28T06:29:29.205Z,2788
2017-05-28T06:30:51.659Z,2904
2017-05-28T06:32:13.524Z,3008
2017-05-28T06:33:35.732Z,3080
2017-05-28T06:34:59.073Z,3100
2017-05-28T06:36:21.382Z,3024
2017-05-28T06:37:43.844Z,2932
2017-05-28T06:39:05.683Z,2924
2017-05-28T06:40:27.903Z,2948
2017-05-28T06:41:50.075Z,2980
2017-05-28T06:43:12.784Z,2956
2017-05-28T06:44:34.946Z,2956
2017-05-28T06:45:56.803Z,2848
2017-05-28T06:47:19.314Z,2828
2017-05-28T06:48:41.858Z,2496
2017-05-28T06:50:03.728Z,2552
2017-05-28T06:51:25.305Z,3192
2017-05-28T06:52:47.164Z,3476
2017-05-28T06:54:09.314Z,3844
2017-05-28T06:55:31.474Z,4416
2017-05-28T06:56:53.986Z,4716
2017-05-28T06:58:16.453Z,4332
2017-05-28T06:59:39.037Z,3140
2017-05-28T07:01:01.224Z,2384
2017-05-28T07:02:23.392Z,2072
2017-05-28T07:03:45.626Z,2040
2017-05-28T07:05:07.914Z,2372
2017-05-28T07:06:30.053Z,2632
2017-05-28T07:07:52.224Z,3056
2017-05-28T07:09:14.082Z,3332
2017-05-28T07:10:36.915Z,3688
2017-05-28T07:11:59.081Z,3968
2017-05-28T07:13:21.574Z,4528
2017-05-28T07:14:43.733Z,5028
2017-05-28T07:16:05.603Z,5880
2017-05-28T07:17:27.760Z,7088
2017-05-28T07:18:49.971Z,8232
2017-05-28T07:20:12.478Z,9204
2017-05-28T07:21:34.296Z,10004
2017-05-28T07:22:56.364Z,9960
2017-05-28T07:24:18.348Z,8696
2017-05-28T07:25:40.532Z,8832
2017-05-28T07:27:02.953Z,10292
2017-05-28T07:28:24.845Z,12768
2017-05-28T07:29:47.410Z,15328
2017-05-28T07:31:09.380Z,16256
2017-05-28T07:32:31.194Z,14224
2017-05-28T07:33:53.684Z,12676
2017-05-28T07:35:15.863Z,14656
2017-05-28T07:36:38.150Z,15112
2017-05-28T07:38:00.666Z,15924
2017-05-28T07:39:23.223Z,16244
2017-05-28T07:40:45.724Z,15676
2017-05-28T07:42:08.222Z,14896
2017-05-28T07:43:30.739Z,13780
2017-05-28T07:44:52.917Z,12888
2017-05-28T07:46:15.405Z,11916
2017-05-28T07:47:37.582Z,10936
2017-05-28T07:49:00.183Z,10044
2017-05-28T07:50:22.683Z,9876
2017-05-28T07:51:44.221Z,10484
2017-05-28T07:53:06.092Z,11792
2017-05-28T07:54:27.967Z,13592
2017-05-28T07:55:49.487Z,15300
2017-05-28T07:57:11.342Z,15776
2017-05-28T07:58:33.812Z,15640
2017-05-28T07:59:55.956Z,16768
2017-05-28T08:01:17.814Z,18464
2017-05-28T08:02:40.038Z,21056
2017-05-28T08:04:02.823Z,21408
2017-05-28T08:05:25.451Z,20160
2017-05-28T08:06:47.332Z,18304
2017-05-28T08:08:09.965Z,16832
2017-05-28T08:09:31.857Z,15948
2017-05-28T08:10:54.499Z,15852
2017-05-28T08:12:16.353Z,17536
2017-05-28T08:13:38.882Z,19648
2017-05-28T08:15:00.807Z,19520
2017-05-28T08:16:23.641Z,18848
2017-05-28T08:17:45.846Z,19136
2017-05-28T08:19:08.012Z,18144
2017-05-28T08:20:29.870Z,16832
2017-05-28T08:21:51.958Z,18624
2017-05-28T08:23:14.512Z,18464
2017-05-28T08:24:36.521Z,16832
2017-05-28T08:25:59.042Z,16192
2017-05-28T08:27:21.873Z,18432
2017-05-28T08:28:44.441Z,20992
2017-05-28T08:30:06.932Z,20032
2017-05-28T08:31:29.201Z,19168
2017-05-28T08:32:52.034Z,21504
2017-05-28T08:34:14.212Z,22176
2017-05-28T08:35:36.061Z,24800
2017-05-28T08:36:57.581Z,27232
2017-05-28T08:38:19.771Z,26592
2017-05-28T08:39:41.653Z,25184
2017-05-28T08:41:03.621Z,25056
2017-05-28T08:42:25.464Z,23392
2017-05-28T08:43:47.910Z,20096
2017-05-28T08:45:09.847Z,19904
2017-05-28T08:46:32.340Z,20640
2017-05-28T08:47:54.183Z,19424
2017-05-28T08:49:16.956Z,19616
2017-05-28T08:50:39.433Z,22304
2017-05-28T08:52:02.040Z,23808
2017-05-28T08:53:24.218Z,23360
2017-05-28T08:54:46.941Z,20000
2017-05-28T08:56:09.442Z,16156
2017-05-28T08:57:31.396Z,14116
2017-05-28T08:58:53.355Z,13772
2017-05-28T09:00:15.922Z,13560
2017-05-28T09:01:37.140Z,13504
2017-05-28T09:02:59.740Z,13860
2017-05-28T09:04:21.912Z,13964
2017-05-28T09:05:44.215Z,13824
2017-05-28T09:07:06.372Z,16036
2017-05-28T09:08:28.542Z,20928
2017-05-28T09:09:50.073Z,24512
2017-05-28T09:11:12.962Z,24256
2017-05-28T09:12:35.314Z,22336
2017-05-28T09:13:57.800Z,21696
2017-05-28T09:15:19.963Z,23968
2017-05-28T09:16:43.214Z,25696
2017-05-28T09:18:05.385Z,24992
2017-05-28T09:19:27.023Z,23808
2017-05-28T09:20:48.876Z,21440
2017-05-28T09:22:11.674Z,21248
2017-05-28T09:23:34.303Z,22048
2017-05-28T09:24:56.223Z,23104
2017-05-28T09:26:18.439Z,22880
2017-05-28T09:27:41.290Z,20384
2017-05-28T09:29:03.461Z,18432
2017-05-28T09:30:25.473Z,17056
2017-05-28T09:31:47.971Z,16160
2017-05-28T09:33:10.101Z,16640
2017-05-28T09:34:32.085Z,17440
2017-05-28T09:35:54.682Z,20704
2017-05-28T09:37:16.852Z,20416
2017-05-28T09:38:39.312Z,19712
2017-05-28T09:40:01.803Z,18560
2017-05-28T09:41:23.986Z,18272
2017-05-28T09:42:46.501Z,17184
2017-05-28T09:44:08.603Z,16512
2017-05-28T09:45:30.772Z,15532
2017-05-28T09:46:52.623Z,15360
2017-05-28T09:48:14.529Z,15300
2017-05-28T09:49:36.383Z,17792
2017-05-28T09:50:58.561Z,18304
2017-05-28T09:52:20.402Z,15420
2017-05-28T09:53:42.584Z,14248
2017-05-28T09:55:05.742Z,15372
2017-05-28T09:56:27.915Z,15924
2017-05-28T09:57:49.856Z,19232
2017-05-28T09:59:12.156Z,20640
2017-05-28T10:00:34.901Z,15988
2017-05-28T10:01:57.134Z,13672
2017-05-28T10:03:19.071Z,15052
2017-05-28T10:04:41.064Z,16508
2017-05-28T10:06:04.076Z,17504
2017-05-28T10:07:25.903Z,17076
2017-05-28T10:08:48.157Z,15952
2017-05-28T10:10:10.652Z,15000
2017-05-28T10:11:33.212Z,14112
2017-05-28T10:12:55.402Z,13384
2017-05-28T10:14:17.596Z,12808
2017-05-28T10:15:40.109Z,12412
2017-05-28T10:17:02.962Z,12352
2017-05-28T10:18:24.820Z,12132
2017-05-28T10:19:46.672Z,11848
2017-05-28T10:21:08.892Z,11780
2017-05-28T10:22:30.984Z,11816
2017-05-28T10:23:52.543Z,11760
2017-05-28T10:25:14.185Z,12016
2017-05-28T10:26:36.083Z,12412
2017-05-28T10:27:58.219Z,13448
2017-05-28T10:29:20.494Z,12928
2017-05-28T10:30:42.854Z,12816
2017-05-28T10:32:05.080Z,13392
2017-05-28T10:33:27.541Z,12532
2017-05-28T10:34:48.852Z,12056
2017-05-28T10:36:10.712Z,11536
2017-05-28T10:37:33.237Z,11040
2017-05-28T10:38:55.363Z,10900
2017-05-28T10:40:17.398Z,11088
2017-05-28T10:41:39.267Z,10584
2017-05-28T10:43:01.850Z,10316
2017-05-28T10:44:24.367Z,10076
2017-05-28T10:45:46.655Z,9972
2017-05-28T10:47:09.141Z,9848
2017-05-28T10:48:31.619Z,9796
2017-05-28T10:49:53.417Z,9244
2017-05-28T10:51:15.325Z,9876
2017-05-28T10:52:37.544Z,11944
2017-05-28T10:53:59.415Z,10768
2017-05-28T10:55:21.633Z,9528
2017-05-28T10:56:43.872Z,9148
2017-05-28T10:58:05.725Z,8912
2017-05-28T10:59:28.202Z,8684
2017-05-28T11:00:51.123Z,8736
2017-05-28T11:02:13.678Z,8768
2017-05-28T11:03:35.867Z,8660
2017-05-28T11:04:58.054Z,8512
2017-05-28T11:06:20.599Z,8680
2017-05-28T11:07:42.773Z,8916
2017-05-28T11:09:05.051Z,8920
2017-05-28T11:10:26.573Z,8728
2017-05-28T11:11:49.083Z,8656
2017-05-28T11:13:11.559Z,8488
2017-05-28T11:14:33.164Z,8488
2017-05-28T11:15:55.026Z,8512
2017-05-28T11:17:17.854Z,8548
2017-05-28T11:18:40.016Z,8468
2017-05-28T11:20:02.263Z,8292
2017-05-28T11:21:24.543Z,8224
2017-05-28T11:22:47.047Z,8152
2017-05-28T11:24:09.656Z,8204
2017-05-28T11:25:31.988Z,8216
2017-05-28T11:26:54.483Z,8224
2017-05-28T11:28:16.706Z,8068
2017-05-28T11:29:38.553Z,8016
2017-05-28T11:31:00.067Z,7920
2017-05-28T11:32:21.931Z,7776
2017-05-28T11:33:44.721Z,7644
2017-05-28T11:35:06.578Z,7476
2017-05-28T11:36:28.772Z,7420
2017-05-28T11:37:51.286Z,7148
2017-05-28T11:39:13.901Z,7036
2017-05-28T11:40:35.733Z,7072
2017-05-28T11:41:57.970Z,7108
2017-05-28T11:43:20.472Z,7056
2017-05-28T11:44:43.333Z,6896
2017-05-28T11:46:05.655Z,6916
2017-05-28T11:47:27.820Z,6840
2017-05-28T11:48:50.464Z,6804
2017-05-28T11:50:12.901Z,6780
2017-05-28T11:51:35.463Z,6804
2017-05-28T11:52:57.352Z,6748
2017-05-28T11:54:19.555Z,6700
2017-05-28T11:55:42.403Z,6764
2017-05-28T11:57:04.948Z,6812
2017-05-28T11:58:27.134Z,6740
2017-05-28T11:59:49.354Z,6588
2017-05-28T12:01:11.593Z,6504
2017-05-28T12:02:34.072Z,6560
2017-05-28T12:03:56.554Z,6540
2017-05-28T12:05:18.732Z,6488
2017-05-28T12:06:40.923Z,6452
2017-05-28T12:08:02.806Z,6420
2017-05-28T12:09:24.740Z,6556
2017-05-28T12:10:47.073Z,6740
2017-05-28T12:12:09.847Z,6712
2017-05-28T12:13:31.698Z,6644
2017-05-28T12:14:54.171Z,6600
2017-05-28T12:16:16.453Z,6540
2017-05-28T12:17:38.303Z,6536
2017-05-28T12:19:00.483Z,6556
2017-05-28T12:20:23.233Z,6724
2017-05-28T12:21:45.492Z,6972
2017-05-28T12:23:08.230Z,7000
2017-05-28T12:24:30.462Z,6972
2017-05-28T12:25:51.993Z,7036
2017-05-28T12:27:14.474Z,7804
2017-05-28T12:28:37.003Z,9600
2017-05-28T12:29:59.005Z,9856
2017-05-28T12:31:20.552Z,8204
2017-05-28T12:32:43.100Z,8004
2017-05-28T12:34:05.972Z,8804
2017-05-28T12:35:27.695Z,9796
2017-05-28T12:36:49.879Z,13452
2017-05-28T12:38:12.033Z,16356
2017-05-28T12:39:34.839Z,16448
2017-05-28T12:40:57.334Z,18560
2017-05-28T12:42:19.242Z,17536
2017-05-28T12:43:41.745Z,15776
2017-05-28T12:45:04.536Z,12804
2017-05-28T12:46:26.392Z,13716
2017-05-28T12:47:48.243Z,12316
2017-05-28T12:49:10.447Z,12164
2017-05-28T12:50:32.970Z,14312
2017-05-28T12:51:55.171Z,14056
2017-05-28T12:53:17.665Z,13948
2017-05-28T12:54:39.203Z,10212
2017-05-28T12:56:01.633Z,8384
2017-05-28T12:57:23.793Z,7764
2017-05-28T12:58:45.974Z,7704
2017-05-28T13:00:08.233Z,8940
2017-05-28T13:01:30.552Z,10444
2017-05-28T13:02:52.733Z,9688
2017-05-28T13:04:15.306Z,8672
2017-05-28T13:05:37.469Z,7584
2017-05-28T13:06:59.977Z,6960
2017-05-28T13:08:21.819Z,6960
2017-05-28T13:09:44.007Z,6704
2017-05-28T13:11:05.643Z,6632
2017-05-28T13:12:27.472Z,6712
2017-05-28T13:13:49.339Z,6684
2017-05-28T13:15:11.826Z,6660
2017-05-28T13:16:33.430Z,6716
2017-05-28T13:17:55.927Z,6704
2017-05-28T13:19:18.240Z,6620
2017-05-28T13:20:40.135Z,6592
2017-05-28T13:22:01.987Z,6620
2017-05-28T13:23:24.955Z,6572
2017-05-28T13:24:47.564Z,6520
2017-05-28T13:26:09.772Z,6644
2017-05-28T13:27:31.643Z,6848
2017-05-28T13:28:54.157Z,6916
2017-05-28T13:30:16.074Z,6852
2017-05-28T13:31:38.332Z,7000
2017-05-28T13:33:00.192Z,7056
2017-05-28T13:34:22.983Z,7108
2017-05-28T13:35:45.142Z,7044
2017-05-28T13:37:07.322Z,6948
2017-05-28T13:38:29.937Z,6908
2017-05-28T13:39:52.543Z,6844
2017-05-28T13:41:14.467Z,6708
2017-05-28T13:42:36.923Z,6736
2017-05-28T13:43:59.236Z,6692
2017-05-28T13:45:22.014Z,6820
2017-05-28T13:46:44.527Z,6904
2017-05-28T13:48:06.711Z,6976
2017-05-28T13:49:28.591Z,7016
2017-05-28T13:50:51.110Z,6972
2017-05-28T13:52:13.611Z,7192
2017-05-28T13:53:36.153Z,7268
2017-05-28T13:54:58.434Z,7320
2017-05-28T13:56:20.640Z,7336
2017-05-28T13:57:42.872Z,7376
2017-05-28T13:59:05.371Z,7292
2017-05-28T14:00:27.540Z,7192
2017-05-28T14:01:50.067Z,7016
2017-05-28T14:03:12.622Z,6824
2017-05-28T14:04:34.895Z,6828
2017-05-28T14:05:56.890Z,6700
2017-05-28T14:07:19.255Z,6656
2017-05-28T14:08:41.445Z,6700
2017-05-28T14:10:03.650Z,6664
2017-05-28T14:11:25.830Z,6536
2017-05-28T14:12:48.386Z,6508
2017-05-28T14:14:10.053Z,6432
2017-05-28T14:15:32.547Z,6452
2017-05-28T14:16:54.381Z,6424
2017-05-28T14:18:17.160Z,6412
2017-05-28T14:19:39.654Z,6444
2017-05-28T14:21:01.943Z,6448
2017-05-28T14:22:24.111Z,6432
2017-05-28T14:23:47.120Z,6372
2017-05-28T14:25:09.023Z,6364
2017-05-28T14:26:31.541Z,6392
2017-05-28T14:27:53.793Z,6116
2017-05-28T14:29:16.664Z,6340
2017-05-28T14:30:39.140Z,6264
2017-05-28T14:32:00.995Z,6180
2017-05-28T14:33:22.853Z,6176
2017-05-28T14:34:45.414Z,6028
2017-05-28T14:36:07.678Z,6200
2017-05-28T14:37:29.531Z,6296
2017-05-28T14:38:51.433Z,6340
2017-05-28T14:40:14.261Z,6172
2017-05-28T14:41:36.110Z,6260
2017-05-28T14:42:58.602Z,6404
2017-05-28T14:44:21.178Z,6548
2017-05-28T14:45:43.820Z,6372
2017-05-28T14:47:05.728Z,6404
2017-05-28T14:48:27.925Z,6296
2017-05-28T14:49:50.450Z,6188
2017-05-28T14:51:12.601Z,6060
2017-05-28T14:52:34.479Z,5944
2017-05-28T14:53:56.678Z,5932
2017-05-28T14:55:18.906Z,5888
2017-05-28T14:56:41.780Z,5880
2017-05-28T14:58:03.985Z,5808
2017-05-28T14:59:25.839Z,5796
2017-05-28T15:00:48.038Z,5160
2017-05-28T15:02:10.582Z,5192
2017-05-28T15:03:32.768Z,5160
2017-05-28T15:04:54.615Z,4888
2017-05-28T15:06:16.801Z,5468
2017-05-28T15:07:39.264Z,5504
2017-05-28T15:09:01.736Z,5528
2017-05-28T15:10:24.118Z,5500
2017-05-28T15:11:46.605Z,5488
2017-05-28T15:13:08.711Z,5420
2017-05-28T15:14:30.891Z,5316
2017-05-28T15:15:53.089Z,5296
2017-05-28T15:17:15.611Z,5252
2017-05-28T15:18:38.109Z,5244
2017-05-28T15:20:00.330Z,5308
2017-05-28T15:21:22.827Z,5256
2017-05-28T15:22:45.048Z,5328
2017-05-28T15:24:08.069Z,5348
2017-05-28T15:25:30.245Z,5400
2017-05-28T15:26:52.438Z,5476
2017-05-28T15:28:14.919Z,5464
2017-05-28T15:29:37.412Z,5488
2017-05-28T15:30:59.302Z,5540
2017-05-28T15:32:22.009Z,5636
2017-05-28T15:33:44.543Z,5684
2017-05-28T15:35:07.352Z,5712
2017-05-28T15:36:29.540Z,5680
2017-05-28T15:37:51.719Z,5728
2017-05-28T15:39:13.602Z,5708
2017-05-28T15:40:35.809Z,5744
2017-05-28T15:41:57.675Z,5808
2017-05-28T15:43:20.252Z,5800
2017-05-28T15:44:42.230Z,5796
2017-05-28T15:46:04.350Z,5776
2017-05-28T15:47:26.591Z,5712
2017-05-28T15:48:49.120Z,5740
2017-05-28T15:50:10.688Z,5752
2017-05-28T15:51:32.549Z,5764
2017-05-28T15:52:54.772Z,5716
2017-05-28T15:54:17.262Z,5708
2017-05-28T15:55:39.546Z,5640
2017-05-28T15:57:02.401Z,5692
2017-05-28T15:58:24.578Z,5840
2017-05-28T15:59:46.426Z,5876
2017-05-28T16:01:08.925Z,5968
2017-05-28T16:02:31.781Z,5956
2017-05-28T16:03:54.342Z,5936
2017-05-28T16:05:16.881Z,6040
2017-05-28T16:06:39.082Z,6028
2017-05-28T16:08:01.559Z,6084
2017-05-28T16:09:24.060Z,6148
2017-05-28T16:10:46.618Z,6120
2017-05-28T16:12:08.951Z,6128
2017-05-28T16:13:31.838Z,6180
2017-05-28T16:14:53.815Z,6224
2017-05-28T16:16:16.437Z,6216
2017-05-28T16:17:38.599Z,6204
2017-05-28T16:19:01.489Z,6148
2017-05-28T16:20:23.656Z,6096
2017-05-28T16:21:46.159Z,6008
2017-05-28T16:23:08.323Z,5956
2017-05-28T16:24:30.215Z,5904
2017-05-28T16:25:52.100Z,5808
2017-05-28T16:27:14.282Z,5820
2017-05-28T16:28:37.002Z,5888
2017-05-28T16:29:59.101Z,5948
2017-05-28T16:31:21.400Z,5964
2017-05-28T16:32:43.884Z,6012
2017-05-28T16:34:05.781Z,6020
2017-05-28T16:35:28.072Z,6008
2017-05-28T16:36:50.292Z,6008
2017-05-28T16:38:12.952Z,6024
2017-05-28T16:39:35.301Z,6084
2017-05-28T16:40:58.140Z,6176
2017-05-28T16:42:20.490Z,6280
2017-05-28T16:43:42.705Z,6352
2017-05-28T16:45:04.377Z,6420
2017-05-28T16:46:26.549Z,6496
2017-05-28T16:47:49.052Z,6556
2017-05-28T16:49:10.897Z,6676
2017-05-28T16:50:33.059Z,6796
2017-05-28T16:51:55.346Z,6880
2017-05-28T16:53:17.320Z,6912
2017-05-28T16:54:39.819Z,6908
2017-05-28T16:56:01.680Z,6876
2017-05-28T16:57:24.430Z,6764
2017-05-28T16:58:46.924Z,6720
2017-05-28T17:00:09.117Z,6652
2017-05-28T17:01:31.821Z,6628
2017-05-28T17:02:54.372Z,6564
2017-05-28T17:04:16.960Z,6516
2017-05-28T17:05:38.670Z,6492
2017-05-28T17:07:00.602Z,6472
2017-05-28T17:08:23.121Z,6412
2017-05-28T17:09:45.010Z,6332
2017-05-28T17:11:06.872Z,6288
2017-05-28T17:12:30.841Z,6260
2017-05-28T17:13:53.591Z,6220
2017-05-28T17:15:15.441Z,6220
2017-05-28T17:16:37.523Z,6196
2017-05-28T17:18:00.134Z,6180
2017-05-28T17:19:22.612Z,6148
2017-05-28T17:20:45.128Z,6116
2017-05-28T17:22:07.010Z,6076
2017-05-28T17:23:29.217Z,6100
2017-05-28T17:24:51.441Z,6168
2017-05-28T17:26:13.967Z,6212
2017-05-28T17:27:36.136Z,6264
2017-05-28T17:28:58.344Z,6332
2017-05-28T17:30:20.923Z,6416
2017-05-28T17:31:43.520Z,6472
2017-05-28T17:33:05.076Z,6500
2017-05-28T17:34:27.583Z,6500
2017-05-28T17:35:50.088Z,6476
2017-05-28T17:37:12.281Z,6400
2017-05-28T17:38:34.836Z,6388
2017-05-28T17:39:57.018Z,6416
2017-05-28T17:41:19.299Z,6448
2017-05-28T17:42:41.793Z,6484
2017-05-28T17:44:04.412Z,6484
2017-05-28T17:45:26.442Z,6468
2017-05-28T17:46:48.942Z,6448
2017-05-28T17:48:11.429Z,6428
2017-05-28T17:49:33.920Z,6400
2017-05-28T17:50:55.771Z,6380
2017-05-28T17:52:18.270Z,6308
2017-05-28T17:53:40.902Z,6224
2017-05-28T17:55:03.081Z,6072
2017-05-28T17:56:25.241Z,5876
2017-05-28T17:57:48.073Z,5664
2017-05-28T17:59:09.938Z,5468
2017-05-28T18:00:32.135Z,5272
2017-05-28T18:01:54.636Z,5084
2017-05-28T18:03:17.058Z,4908
2017-05-28T18:04:39.553Z,4752
2017-05-28T18:06:02.031Z,4620
2017-05-28T18:07:24.527Z,4480
2017-05-28T18:08:46.748Z,4352
2017-05-28T18:10:09.251Z,4252
2017-05-28T18:11:31.430Z,4152
2017-05-28T18:12:53.269Z,4080
2017-05-28T18:14:15.105Z,4012
2017-05-28T18:15:36.969Z,3952
2017-05-28T18:16:59.462Z,3908
2017-05-28T18:18:21.949Z,3864
2017-05-28T18:19:44.720Z,3816
2017-05-28T18:21:06.902Z,3780
2017-05-28T18:22:29.162Z,3748